Pretty Hana — DSQJ5 — position and weather

sailwx.info

Track history (hours):
 
Tides and Currents Weather Stations Pressure Air Temp Water Temp Dewpoint Dewpoint Depression Visibility Wind Speed Wind Dir Waves Ship Positions

Pretty Hana

Last reported at 2015-Jul-22 13:17 UTC. Time now 2015-Jul-29 04:53 UTC.
Position N 35°03' E 120°16'.

; draft 3.2 m.

Type: Tanker. MMSI: 441600000.

Date/timePositionNaut miles runAvg speedWind from/ knotsBaromVisibWave heightAir tempDewpointWater temp
2015-Jul-22 13:17N 35°03' E 120°16'810.3
2015-Jul-22 12:33N 35°04' E 120°07'1010.0
2015-Jul-22 11:33N 35°04' E 119°55'1010.1
2015-Jul-22 10:33N 35°04' E 119°42'10 9.7
2015-Jul-22 09:29N 35°03' E 119°30'6 4.4
2015-Jul-22 08:04N 35°06' E 119°23'0 0.0
2015-Jul-22 07:28N 35°06' E 119°23'0 0.0
2015-Jul-22 06:22N 35°06' E 119°23'0 0.0
2015-Jul-22 05:16N 35°06' E 119°23'0 0.0
2015-Jul-22 01:04N 35°06' E 119°23'0 0.0
2015-Jul-22 00:22N 35°06' E 119°23'0 0.0
2015-Jul-21 23:28N 35°06' E 119°23'6 6.2
2015-Jul-21 22:33N 35°03' E 119°29'1010.3
2015-Jul-21 21:33N 35°05' E 119°41'2 1.2
2015-Jul-21 20:13N 35°04' E 119°43'  
2015-Jul-19 05:04N 35°05' E 119°44'273 8.3
2015-Jul-17 20:18N 31°03' E 122°15'912.5
2015-Jul-17 19:33N 31°04' E 122°04'1111.5
2015-Jul-17 18:33N 31°09' E 121°52'9 9.5
2015-Jul-17 17:33N 31°17' E 121°45'8 7.9
2015-Jul-17 16:33N 31°22' E 121°38'8 7.6
2015-Jul-17 15:33N 31°26' E 121°30'7 6.9
2015-Jul-17 14:32N 31°30' E 121°24'1111.1
2015-Jul-17 13:32N 31°38' E 121°15'1212.2
2015-Jul-17 12:33N 31°45' E 121°03'1211.5
2015-Jul-17 11:32N 31°53' E 120°53'1111.5
2015-Jul-17 10:33N 32°00' E 120°43'1312.2
2015-Jul-17 09:28N 32°02' E 120°27'1211.6
2015-Jul-17 08:28N 31°56' E 120°15'9 9.9
2015-Jul-17 07:32N 31°57' E 120°04'7 0.4
2015-Jul-16 14:03N 32°01' E 119°58'4 6.7
2015-Jul-16 13:31N 31°59' E 120°01'7 7.0
2015-Jul-16 12:29N 31°56' E 120°09'8 7.2
2015-Jul-16 11:26N 31°58' E 120°18'7 7.9
2015-Jul-16 10:33N 32°01' E 120°25'8 7.6
2015-Jul-16 09:33N 32°01' E 120°34'8 8.2
2015-Jul-16 08:34N 32°01' E 120°44'8 8.0
2015-Jul-16 07:32N 31°56' E 120°52'11 9.7
2015-Jul-16 06:25N 31°47' E 120°58'1011.1
2015-Jul-16 05:29N 31°42' E 121°09'1111.5
2015-Jul-16 04:33N 31°35' E 121°18'1211.6
2015-Jul-16 03:33N 31°27' E 121°28'1111.1
2015-Jul-16 02:33N 31°21' E 121°39'1211.7
2015-Jul-16 01:33N 31°13' E 121°49'1212.0
2015-Jul-16 00:33N 31°06' E 122°00'  
Track history (hours):
 
Tides and Currents Weather Stations Pressure Air Temp Water Temp Dewpoint Dewpoint Depression Visibility Wind Speed Wind Dir Waves Ship Positions

Pretty Hana

Last reported at 2015-Jul-22 13:17 UTC. Time now 2015-Jul-29 04:53 UTC.
Position N 35°03' E 120°16'.

; draft 3.2 m.

Type: Tanker. MMSI: 441600000.

Date/timePositionNaut miles runAvg speedWind from/ knotsBaromVisibWave heightAir tempDewpointWater temp
2015-Jul-22 13:17N 35°03' E 120°16'810.3
2015-Jul-22 12:33N 35°04' E 120°07'1010.0
2015-Jul-22 11:33N 35°04' E 119°55'1010.1
2015-Jul-22 10:33N 35°04' E 119°42'10 9.7
2015-Jul-22 09:29N 35°03' E 119°30'6 4.4
2015-Jul-22 08:04N 35°06' E 119°23'0 0.0
2015-Jul-22 07:28N 35°06' E 119°23'0 0.0
2015-Jul-22 06:22N 35°06' E 119°23'0 0.0
2015-Jul-22 05:16N 35°06' E 119°23'0 0.0
2015-Jul-22 01:04N 35°06' E 119°23'0 0.0
2015-Jul-22 00:22N 35°06' E 119°23'0 0.0
2015-Jul-21 23:28N 35°06' E 119°23'6 6.2
2015-Jul-21 22:33N 35°03' E 119°29'1010.3
2015-Jul-21 21:33N 35°05' E 119°41'2 1.2
2015-Jul-21 20:13N 35°04' E 119°43'  
2015-Jul-19 05:04N 35°05' E 119°44'273 8.3
2015-Jul-17 20:18N 31°03' E 122°15'912.5
2015-Jul-17 19:33N 31°04' E 122°04'1111.5
2015-Jul-17 18:33N 31°09' E 121°52'9 9.5
2015-Jul-17 17:33N 31°17' E 121°45'8 7.9
2015-Jul-17 16:33N 31°22' E 121°38'8 7.6
2015-Jul-17 15:33N 31°26' E 121°30'7 6.9
2015-Jul-17 14:32N 31°30' E 121°24'1111.1
2015-Jul-17 13:32N 31°38' E 121°15'1212.2
2015-Jul-17 12:33N 31°45' E 121°03'1211.5
2015-Jul-17 11:32N 31°53' E 120°53'1111.5
2015-Jul-17 10:33N 32°00' E 120°43'1312.2
2015-Jul-17 09:28N 32°02' E 120°27'1211.6
2015-Jul-17 08:28N 31°56' E 120°15'9 9.9
2015-Jul-17 07:32N 31°57' E 120°04'7 0.4
2015-Jul-16 14:03N 32°01' E 119°58'4 6.7
2015-Jul-16 13:31N 31°59' E 120°01'7 7.0
2015-Jul-16 12:29N 31°56' E 120°09'8 7.2
2015-Jul-16 11:26N 31°58' E 120°18'7 7.9
2015-Jul-16 10:33N 32°01' E 120°25'8 7.6
2015-Jul-16 09:33N 32°01' E 120°34'8 8.2
2015-Jul-16 08:34N 32°01' E 120°44'8 8.0
2015-Jul-16 07:32N 31°56' E 120°52'11 9.7
2015-Jul-16 06:25N 31°47' E 120°58'1011.1
2015-Jul-16 05:29N 31°42' E 121°09'1111.5
2015-Jul-16 04:33N 31°35' E 121°18'1211.6
2015-Jul-16 03:33N 31°27' E 121°28'1111.1
2015-Jul-16 02:33N 31°21' E 121°39'1211.7
2015-Jul-16 01:33N 31°13' E 121°49'1212.0
2015-Jul-16 00:33N 31°06' E 122°00'  

Dump ship's entire track history